Time;durP1;ratioP1;P1;durP2;ratioP2;P2;SDS_P1;SDS_P2;PMS_P1;PMS_P2;Temp;Humidity;BMP_temperature;BMP_pressure;BME280_temperature;BME280_humidity;BME280_pressure;Samples;Min_cycle;Max_cycle;Signal;HPM_P1;HPM_P2
2022/09/21 04:31:41;;;;;;;;;16.33;14.67;;;;;;;;5365588;23;46426;-55
2022/09/21 04:34:06;;;;;;;;;14.67;14.00;;;;;;;;4997631;28;45289;-53
2022/09/21 04:36:31;;;;;;;;;14.00;13.00;;;;;;;;5000901;28;45398;-54
2022/09/21 04:38:57;;;;;;;;;14.33;14.33;;;;;;;;4990906;28;45366;-54
2022/09/21 04:41:22;;;;;;;;;20.33;14.67;;;;;;;;4998632;28;47014;-51
2022/09/21 04:43:48;;;;;;;;;13.00;11.33;;;;;;;;4996009;28;45470;-52
2022/09/21 04:46:14;;;;;;;;;20.00;18.33;;;;;;;;4999783;28;45315;-51
2022/09/21 04:48:40;;;;;;;;;17.33;17.33;;;;;;;;4998528;28;46815;-54
2022/09/21 04:51:08;;;;;;;;;13.33;12.33;;;;;;;;4990714;28;46060;-54
2022/09/21 04:53:34;;;;;;;;;17.67;14.33;;;;;;;;4989016;28;45458;-55
2022/09/21 04:56:00;;;;;;;;;20.00;16.00;;;;;;;;5000901;28;45194;-54
2022/09/21 04:58:25;;;;;;;;;13.67;12.67;;;;;;;;5002815;28;45327;-54
2022/09/21 05:00:51;;;;;;;;;10.67;9.33;;;;;;;;4998830;28;46090;-53
2022/09/21 05:03:17;;;;;;;;;24.00;18.67;;;;;;;;5007281;28;45382;-53
2022/09/21 05:05:48;;;;;;;;;21.00;18.00;;;;;;;;4998674;28;45301;-54
2022/09/21 05:08:14;;;;;;;;;14.33;14.33;;;;;;;;4981435;28;45249;-54
2022/09/21 05:10:40;;;;;;;;;15.67;14.00;;;;;;;;4997121;28;45431;-49
2022/09/21 05:13:05;;;;;;;;;21.33;18.67;;;;;;;;4999185;28;45350;-52
2022/09/21 05:15:30;;;;;;;;;17.33;15.67;;;;;;;;5000675;28;45491;-53
2022/09/21 05:17:55;;;;;;;;;15.67;14.67;;;;;;;;4994089;28;45418;-53
2022/09/21 05:20:21;;;;;;;;;17.33;16.33;;;;;;;;4996845;28;45419;-49
2022/09/21 05:22:46;;;;;;;;;8.33;7.00;;;;;;;;5008457;28;45331;-53
2022/09/21 05:25:11;;;;;;;;;17.00;14.67;;;;;;;;5000899;28;45390;-55
2022/09/21 05:27:36;;;;;;;;;19.00;15.00;;;;;;;;5007951;28;45468;-53
2022/09/21 05:30:02;;;;;;;;;14.00;12.33;;;;;;;;4992725;28;46497;-54
2022/09/21 05:32:36;;;;;;;;;14.00;14.00;;;;;;;;4994501;28;45338;-53
2022/09/21 05:35:11;;;;;;;;;14.33;14.33;;;;;;;;4991815;28;45779;-50
2022/09/21 05:37:55;;;;;;;;;18.33;15.67;;;;;;;;4992984;28;45666;-51
2022/09/21 05:40:20;;;;;;;;;12.00;11.67;;;;;;;;4997285;28;46211;-53
2022/09/21 05:42:45;;;;;;;;;16.33;15.00;;;;;;;;4991883;28;45889;-53
2022/09/21 05:45:15;;;;;;;;;12.33;12.33;;;;;;;;4998532;28;46074;-51
2022/09/21 05:47:49;;;;;;;;;17.00;14.33;;;;;;;;5008604;28;45305;-54
2022/09/21 05:50:14;;;;;;;;;11.33;11.33;;;;;;;;5000009;28;45368;-50
2022/09/21 05:52:48;;;;;;;;;14.75;13.00;;;;;;;;4996256;28;45422;-53
2022/09/21 05:55:30;;;;;;;;;16.33;13.00;;;;;;;;4997446;28;45778;-57
2022/09/21 05:58:15;;;;;;;;;13.67;13.67;;;;;;;;4987417;28;45465;-53
2022/09/21 06:00:53;;;;;;;;;14.00;14.00;;;;;;;;4992342;28;46569;-53
2022/09/21 06:03:25;;;;;;;;;15.33;12.00;;;;;;;;4986163;28;45463;-53
2022/09/21 06:05:50;;;;;;;;;12.00;12.00;;;;;;;;4997745;28;45814;-55
2022/09/21 06:08:15;;;;;;;;;12.33;12.33;;;;;;;;4991867;28;45897;-54
2022/09/21 06:10:40;;;;;;;;;16.00;14.67;;;;;;;;4996176;28;46204;-53
2022/09/21 06:13:06;;;;;;;;;13.67;11.33;;;;;;;;4984244;28;45599;-52
2022/09/21 06:15:33;;;;;;;;;13.00;13.00;;;;;;;;4990130;28;45646;-55
2022/09/21 06:17:58;;;;;;;;;14.67;12.67;;;;;;;;4997181;28;45572;-54
2022/09/21 06:20:24;;;;;;;;;17.67;12.67;;;;;;;;4988415;28;47063;-51
2022/09/21 06:22:49;;;;;;;;;11.00;11.00;;;;;;;;4995675;28;45339;-55
2022/09/21 06:25:14;;;;;;;;;19.33;13.00;;;;;;;;4997013;28;45281;-51
2022/09/21 06:27:39;;;;;;;;;12.67;12.67;;;;;;;;4990112;28;45621;-53
2022/09/21 06:30:05;;;;;;;;;15.00;13.67;;;;;;;;4995353;28;46253;-52
2022/09/21 06:32:30;;;;;;;;;17.67;13.00;;;;;;;;4994114;28;46125;-50
2022/09/21 06:34:55;;;;;;;;;18.33;16.00;;;;;;;;4989908;28;45389;-58
2022/09/21 06:37:20;;;;;;;;;11.33;11.00;;;;;;;;5000940;28;45456;-58
2022/09/21 06:39:45;;;;;;;;;12.33;12.00;;;;;;;;4996366;28;46297;-59
2022/09/21 06:42:11;;;;;;;;;14.00;12.33;;;;;;;;4996509;28;45521;-59
2022/09/21 06:44:36;;;;;;;;;11.33;11.33;;;;;;;;5000240;28;45578;-59
2022/09/21 06:47:01;;;;;;;;;14.00;13.00;;;;;;;;5003303;28;45270;-59
2022/09/21 06:49:27;;;;;;;;;10.67;10.67;;;;;;;;4998615;28;45422;-59
2022/09/21 06:51:53;;;;;;;;;11.33;8.67;;;;;;;;4986322;28;45440;-59
2022/09/21 06:54:18;;;;;;;;;12.00;10.33;;;;;;;;4995589;28;46942;-59
2022/09/21 06:56:43;;;;;;;;;12.33;11.00;;;;;;;;4990279;28;45693;-59
2022/09/21 06:59:09;;;;;;;;;15.33;11.33;;;;;;;;4996295;28;46054;-59
2022/09/21 07:01:34;;;;;;;;;10.67;10.67;;;;;;;;4993843;28;45276;-59
2022/09/21 07:03:59;;;;;;;;;18.00;15.00;;;;;;;;4998590;28;45336;-59
2022/09/21 07:06:25;;;;;;;;;13.00;12.33;;;;;;;;4993785;28;45309;-59
2022/09/21 07:08:51;;;;;;;;;11.33;11.33;;;;;;;;4998085;28;46304;-60
2022/09/21 07:11:16;;;;;;;;;16.67;12.67;;;;;;;;4992031;28;45293;-59
2022/09/21 07:13:41;;;;;;;;;16.00;14.33;;;;;;;;4986392;28;45566;-59
2022/09/21 07:16:08;;;;;;;;;12.67;12.67;;;;;;;;5001460;28;45445;-60
2022/09/21 07:18:33;;;;;;;;;18.00;14.67;;;;;;;;4998864;28;45884;-58
2022/09/21 07:21:03;;;;;;;;;11.67;11.00;;;;;;;;5004869;28;45411;-58
2022/09/21 07:23:28;;;;;;;;;14.67;10.00;;;;;;;;4994046;28;45733;-59
2022/09/21 07:25:53;;;;;;;;;11.00;10.67;;;;;;;;4997519;28;45297;-58
2022/09/21 07:28:18;;;;;;;;;13.00;10.33;;;;;;;;4998260;28;46218;-59
2022/09/21 07:30:43;;;;;;;;;12.00;11.00;;;;;;;;4999201;28;45212;-59
2022/09/21 07:33:09;;;;;;;;;15.67;13.67;;;;;;;;4991130;28;45412;-58
2022/09/21 07:35:35;;;;;;;;;13.67;9.67;;;;;;;;4993859;28;45506;-58
2022/09/21 07:38:01;;;;;;;;;11.33;10.00;;;;;;;;5001143;28;46063;-60
2022/09/21 07:40:26;;;;;;;;;15.67;13.00;;;;;;;;4993029;28;45483;-57
2022/09/21 07:42:56;;;;;;;;;12.33;11.33;;;;;;;;4999959;28;45478;-59
2022/09/21 07:45:21;;;;;;;;;13.67;12.00;;;;;;;;4995548;28;45503;-59
2022/09/21 07:47:46;;;;;;;;;13.33;13.33;;;;;;;;5000124;28;45592;-58
2022/09/21 07:50:11;;;;;;;;;13.00;12.00;;;;;;;;5005641;28;45487;-58
2022/09/21 07:52:36;;;;;;;;;20.00;15.00;;;;;;;;5001337;28;45510;-60
2022/09/21 07:55:02;;;;;;;;;12.67;12.00;;;;;;;;4994338;28;45415;-59
2022/09/21 08:00:11;;;;;;;;;15.33;13.00;;;;;;;;4995973;28;46366;-60
2022/09/21 08:02:36;;;;;;;;;14.67;13.00;;;;;;;;5007299;28;45344;-59
2022/09/21 08:05:01;;;;;;;;;13.00;13.00;;;;;;;;4999274;28;45564;-59
2022/09/21 08:07:27;;;;;;;;;12.67;11.67;;;;;;;;4995840;28;46322;-59
2022/09/21 08:09:52;;;;;;;;;14.33;9.00;;;;;;;;4998633;28;45728;-59
2022/09/21 08:12:18;;;;;;;;;18.00;16.00;;;;;;;;4993931;28;45464;-58
2022/09/21 08:14:44;;;;;;;;;15.67;12.33;;;;;;;;4990175;28;45453;-59
2022/09/21 08:17:09;;;;;;;;;14.00;13.33;;;;;;;;4995245;28;46129;-59
2022/09/21 08:19:35;;;;;;;;;12.00;12.00;;;;;;;;4998233;28;45517;-59
2022/09/21 08:22:00;;;;;;;;;16.33;14.00;;;;;;;;4994073;28;45430;-59
2022/09/21 08:24:26;;;;;;;;;17.00;14.50;;;;;;;;4990593;28;45602;-59
2022/09/21 08:26:51;;;;;;;;;14.33;11.33;;;;;;;;4995685;28;45942;-59
2022/09/21 08:29:16;;;;;;;;;12.00;11.33;;;;;;;;4995290;28;45351;-59
2022/09/21 08:31:42;;;;;;;;;16.33;15.00;;;;;;;;4993763;28;45467;-59
2022/09/21 08:34:07;;;;;;;;;21.67;16.67;;;;;;;;4994995;28;45416;-59
2022/09/21 08:36:33;;;;;;;;;15.67;12.00;;;;;;;;4990072;28;46360;-59
2022/09/21 08:38:58;;;;;;;;;25.33;17.67;;;;;;;;4997422;28;46668;-59
2022/09/21 08:41:32;;;;;;;;;13.00;13.00;;;;;;;;4994131;28;45239;-59
2022/09/21 08:44:12;;;;;;;;;17.67;14.67;;;;;;;;5000888;28;45616;-59
2022/09/21 08:46:37;;;;;;;;;12.67;11.00;;;;;;;;5001446;28;46130;-60
2022/09/21 08:49:05;;;;;;;;;13.33;11.33;;;;;;;;4995992;28;45376;-59
2022/09/21 08:51:32;;;;;;;;;13.67;13.33;;;;;;;;5001453;28;45424;-59
2022/09/21 08:54:01;;;;;;;;;13.67;12.33;;;;;;;;4990533;28;45412;-59
2022/09/21 08:56:26;;;;;;;;;20.00;13.33;;;;;;;;4998835;28;46228;-59
2022/09/21 08:58:51;;;;;;;;;12.00;11.67;;;;;;;;4997481;28;45462;-59
2022/09/21 09:01:30;;;;;;;;;13.67;11.67;;;;;;;;4997877;28;45369;-59
2022/09/21 09:03:55;;;;;;;;;13.33;11.33;;;;;;;;4997254;28;45551;-59
2022/09/21 09:06:29;;;;;;;;;11.50;10.25;;;;;;;;4994807;28;45492;-60
2022/09/21 09:09:07;;;;;;;;;11.33;11.00;;;;;;;;4988547;28;45606;-60
2022/09/21 09:11:39;;;;;;;;;12.00;10.00;;;;;;;;4996036;28;45523;-58
2022/09/21 09:14:04;;;;;;;;;13.67;10.33;;;;;;;;4996749;28;45350;-59
2022/09/21 09:16:43;;;;;;;;;15.25;11.00;;;;;;;;4994498;28;45342;-59
2022/09/21 09:19:18;;;;;;;;;11.00;8.67;;;;;;;;4995964;28;45668;-58
2022/09/21 09:21:44;;;;;;;;;12.67;8.00;;;;;;;;4992261;28;45449;-59
2022/09/21 09:24:12;;;;;;;;;5.33;5.33;;;;;;;;4990229;28;45435;-58
2022/09/21 09:26:56;;;;;;;;;6.00;5.33;;;;;;;;4994129;28;45703;-58
2022/09/21 09:29:31;;;;;;;;;23.67;20.33;;;;;;;;4994508;28;45304;-58
2022/09/21 09:31:58;;;;;;;;;9.67;8.67;;;;;;;;5004198;28;45284;-60
2022/09/21 09:34:27;;;;;;;;;6.00;4.75;;;;;;;;4987479;28;45540;-60
2022/09/21 09:37:04;;;;;;;;;8.25;8.25;;;;;;;;4993508;28;45778;-60
2022/09/21 09:39:29;;;;;;;;;10.50;7.25;;;;;;;;4991524;28;45599;-59
2022/09/21 09:42:21;;;;;;;;;10.00;7.25;;;;;;;;4997370;28;45347;-58
2022/09/21 09:45:05;;;;;;;;;4.50;4.50;;;;;;;;4990702;28;45409;-59
2022/09/21 09:47:49;;;;;;;;;5.75;5.00;;;;;;;;4995000;28;46078;-59
2022/09/21 09:50:19;;;;;;;;;8.00;5.50;;;;;;;;4992377;28;46058;-59
2022/09/21 09:52:45;;;;;;;;;5.75;5.75;;;;;;;;4997631;28;45603;-58
2022/09/21 09:55:23;;;;;;;;;6.75;5.00;;;;;;;;4994681;28;45660;-58
2022/09/21 09:57:49;;;;;;;;;6.00;4.25;;;;;;;;4994776;28;45323;-59
2022/09/21 10:00:16;;;;;;;;;4.25;4.00;;;;;;;;4994326;28;45471;-58
2022/09/21 10:02:52;;;;;;;;;8.00;6.00;;;;;;;;4995643;28;45573;-58
2022/09/21 10:05:21;;;;;;;;;4.75;4.00;;;;;;;;4997220;28;45515;-59
2022/09/21 10:07:47;;;;;;;;;4.50;4.50;;;;;;;;4996698;28;45292;-58
2022/09/21 10:10:22;;;;;;;;;7.00;4.25;;;;;;;;4996051;28;45430;-59
2022/09/21 10:12:48;;;;;;;;;4.50;4.50;;;;;;;;4997747;28;45535;-58
2022/09/21 10:15:15;;;;;;;;;4.75;4.75;;;;;;;;4992186;28;45630;-58
2022/09/21 10:17:41;;;;;;;;;5.00;4.75;;;;;;;;4986928;28;46185;-58
2022/09/21 10:20:07;;;;;;;;;7.25;7.25;;;;;;;;4993388;28;45876;-59
2022/09/21 10:22:32;;;;;;;;;4.50;4.50;;;;;;;;4996462;28;45579;-59
2022/09/21 10:25:00;;;;;;;;;5.00;5.00;;;;;;;;4988665;28;45335;-59
2022/09/21 10:27:32;;;;;;;;;5.75;4.25;;;;;;;;4997738;28;46458;-58
2022/09/21 10:29:57;;;;;;;;;5.00;3.00;;;;;;;;4993136;28;45328;-58
2022/09/21 10:32:24;;;;;;;;;4.50;3.75;;;;;;;;4996209;28;45566;-58
2022/09/21 10:35:01;;;;;;;;;2.25;2.25;;;;;;;;4997699;28;45502;-58
2022/09/21 10:37:27;;;;;;;;;3.00;3.00;;;;;;;;4995953;28;45377;-59
2022/09/21 10:39:53;;;;;;;;;4.75;2.00;;;;;;;;4988731;28;45760;-59
2022/09/21 10:42:18;;;;;;;;;2.00;2.00;;;;;;;;4992000;28;45372;-59
2022/09/21 10:44:49;;;;;;;;;3.75;2.00;;;;;;;;4995765;28;45439;-57
2022/09/21 10:47:26;;;;;;;;;1.25;1.25;;;;;;;;4993098;28;47340;-58
2022/09/21 10:49:53;;;;;;;;;2.25;2.25;;;;;;;;4988125;28;45147;-59
2022/09/21 10:52:24;;;;;;;;;2.25;1.50;;;;;;;;4994159;28;45443;-59
2022/09/21 10:54:51;;;;;;;;;6.25;2.25;;;;;;;;4992771;28;45537;-58
2022/09/21 10:57:18;;;;;;;;;2.00;2.00;;;;;;;;5006109;28;46883;-58
2022/09/21 10:59:43;;;;;;;;;2.75;1.00;;;;;;;;4999656;28;45968;-58
2022/09/21 11:02:25;;;;;;;;;1.00;0.50;;;;;;;;4996503;28;45826;-59
2022/09/21 11:04:58;;;;;;;;;3.50;2.00;;;;;;;;4995304;28;45357;-58
2022/09/21 11:07:33;;;;;;;;;2.25;2.25;;;;;;;;4993489;28;45974;-58
2022/09/21 11:10:01;;;;;;;;;4.00;4.00;;;;;;;;4995679;28;45958;-58
2022/09/21 11:12:29;;;;;;;;;2.75;2.75;;;;;;;;4992771;28;45514;-58
2022/09/21 11:15:17;;;;;;;;;1.25;1.25;;;;;;;;4997289;28;45442;-58
2022/09/21 11:17:49;;;;;;;;;2.00;2.00;;;;;;;;4983736;28;45605;-59
2022/09/21 11:20:19;;;;;;;;;1.75;1.75;;;;;;;;4994695;28;45416;-58
2022/09/21 11:22:54;;;;;;;;;2.00;2.00;;;;;;;;4988094;28;45353;-58
2022/09/21 11:25:23;;;;;;;;;3.00;2.00;;;;;;;;4993543;28;45395;-59
2022/09/21 11:27:53;;;;;;;;;4.50;2.50;;;;;;;;4986875;28;45926;-58
2022/09/21 11:30:19;;;;;;;;;3.75;3.75;;;;;;;;4988203;28;45408;-58
2022/09/21 11:33:09;;;;;;;;;22.00;20.00;;;;;;;;4987300;28;45455;-64
2022/09/21 11:35:42;;;;;;;;;13.67;13.67;;;;;;;;4995411;28;45778;-62
2022/09/21 11:38:10;;;;;;;;;19.33;14.00;;;;;;;;4990491;28;46414;-66
2022/09/21 11:41:07;;;;;;;;;11.00;10.00;;;;;;;;4995984;28;45295;-62
2022/09/21 11:43:48;;;;;;;;;3.50;3.50;;;;;;;;4990886;28;45392;-63
2022/09/21 11:46:36;;;;;;;;;8.25;8.25;;;;;;;;4995210;28;46355;-61
2022/09/21 11:49:01;;;;;;;;;7.00;5.00;;;;;;;;4989432;28;46007;-62
2022/09/21 11:51:36;;;;;;;;;7.50;7.00;;;;;;;;4994210;28;45731;-63
2022/09/21 11:54:19;;;;;;;;;10.25;8.75;;;;;;;;4994912;28;45666;-63
2022/09/21 11:57:17;;;;;;;;;2.00;2.00;;;;;;;;4995557;28;45430;-65
2022/09/21 11:59:59;;;;;;;;;1.25;1.25;;;;;;;;4967777;28;47093;-60
2022/09/21 12:02:24;;;;;;;;;3.75;3.75;;;;;;;;4992130;28;45556;-62
2022/09/21 12:04:56;;;;;;;;;11.25;11.25;;;;;;;;4998097;28;45529;-63
2022/09/21 12:07:30;;;;;;;;;2.75;2.75;;;;;;;;4999423;28;45519;-62
2022/09/21 12:10:17;;;;;;;;;3.25;2.75;;;;;;;;4996552;28;46813;-64
2022/09/21 12:12:45;;;;;;;;;4.75;2.75;;;;;;;;5002937;28;45441;-65
2022/09/21 12:15:21;;;;;;;;;3.75;3.75;;;;;;;;4998037;28;45570;-63
2022/09/21 12:17:57;;;;;;;;;3.00;3.00;;;;;;;;4995031;28;45396;-63
2022/09/21 12:20:28;;;;;;;;;3.00;3.00;;;;;;;;4997136;28;47435;-63
2022/09/21 12:22:59;;;;;;;;;3.25;1.50;;;;;;;;4999444;28;46413;-64
2022/09/21 12:25:27;;;;;;;;;3.00;3.00;;;;;;;;4996931;28;45483;-66
2022/09/21 12:28:00;;;;;;;;;2.75;2.00;;;;;;;;4998940;28;45512;-64
2022/09/21 12:30:27;;;;;;;;;2.25;1.25;;;;;;;;4999741;28;47494;-60
2022/09/21 12:33:02;;;;;;;;;2.00;2.00;;;;;;;;4993989;28;45464;-68
2022/09/21 12:35:33;;;;;;;;;3.00;2.25;;;;;;;;4996008;28;45358;-66
2022/09/21 12:38:17;;;;;;;;;2.00;2.00;;;;;;;;4998771;28;45515;-65
2022/09/21 12:40:42;;;;;;;;;4.25;4.25;;;;;;;;4999186;28;45518;-66
2022/09/21 12:43:18;;;;;;;;;1.00;1.00;;;;;;;;4999016;28;45486;-66
2022/09/21 12:45:51;;;;;;;;;2.75;1.00;;;;;;;;4998541;28;45747;-64
2022/09/21 12:48:30;;;;;;;;;1.50;1.50;;;;;;;;4997808;28;45525;-61
2022/09/21 12:51:11;;;;;;;;;2.50;2.00;;;;;;;;4999485;28;46942;-62
2022/09/21 12:53:37;;;;;;;;;2.25;0.75;;;;;;;;4995635;28;45746;-62
2022/09/21 12:56:05;;;;;;;;;8.25;3.00;;;;;;;;4997785;28;45469;-62
2022/09/21 12:58:33;;;;;;;;;9.00;6.67;;;;;;;;4991049;28;46148;-63
2022/09/21 13:01:05;;;;;;;;;2.00;2.00;;;;;;;;4990215;28;46636;-63
2022/09/21 13:03:40;;;;;;;;;7.00;5.25;;;;;;;;5001374;28;45607;-63
2022/09/21 13:06:28;;;;;;;;;3.25;3.25;;;;;;;;4998269;28;45469;-63
2022/09/21 13:08:53;;;;;;;;;2.50;1.00;;;;;;;;4996322;28;45427;-66
2022/09/21 13:11:20;;;;;;;;;0.50;0.50;;;;;;;;4998975;28;45328;-65
2022/09/21 13:13:50;;;;;;;;;2.50;1.00;;;;;;;;4995207;28;45619;-66
2022/09/21 13:16:26;;;;;;;;;1.00;1.00;;;;;;;;4998944;28;45521;-65
2022/09/21 13:18:59;;;;;;;;;3.00;2.00;;;;;;;;4997596;28;45332;-66
2022/09/21 13:21:25;;;;;;;;;3.00;3.00;;;;;;;;4999107;28;46223;-66
2022/09/21 13:24:01;;;;;;;;;2.00;2.00;;;;;;;;4996780;28;45503;-66
2022/09/21 13:26:49;;;;;;;;;1.00;1.00;;;;;;;;4994698;28;45402;-66
2022/09/21 13:29:18;;;;;;;;;2.00;1.75;;;;;;;;4992546;28;45297;-64
2022/09/21 13:31:56;;;;;;;;;1.00;1.00;;;;;;;;4996424;28;46163;-67
2022/09/21 13:34:23;;;;;;;;;2.75;2.75;;;;;;;;4997668;28;45358;-63
2022/09/21 13:37:07;;;;;;;;;2.25;2.25;;;;;;;;4997676;28;45267;-65
2022/09/21 13:39:32;;;;;;;;;2.25;1.50;;;;;;;;4998117;28;46221;-65
2022/09/21 13:41:57;;;;;;;;;2.50;2.50;;;;;;;;4996442;28;45779;-66
2022/09/21 13:44:40;;;;;;;;;2.00;2.00;;;;;;;;4996859;28;45455;-65
2022/09/21 13:47:06;;;;;;;;;3.00;2.33;;;;;;;;4992898;28;45455;-66
2022/09/21 13:49:43;;;;;;;;;2.00;2.00;;;;;;;;4996995;28;45500;-66
2022/09/21 13:52:15;;;;;;;;;1.75;1.50;;;;;;;;4998813;28;46542;-63
2022/09/21 13:54:43;;;;;;;;;2.50;2.00;;;;;;;;4994394;28;45446;-64
2022/09/21 13:57:27;;;;;;;;;0.50;0.00;;;;;;;;5003046;28;45568;-64
2022/09/21 14:00:05;;;;;;;;;1.67;1.67;;;;;;;;4982031;28;45718;-65
2022/09/21 14:02:33;;;;;;;;;1.33;1.33;;;;;;;;4996070;28;47558;-66
2022/09/21 14:05:05;;;;;;;;;1.67;1.00;;;;;;;;4990473;28;45467;-71
2022/09/21 14:07:31;;;;;;;;;1.00;1.00;;;;;;;;4997942;28;45474;-66
2022/09/21 14:10:00;;;;;;;;;4.00;3.00;;;;;;;;4991210;28;45439;-65
2022/09/21 14:12:26;;;;;;;;;1.67;1.00;;;;;;;;4990514;28;45317;-63
2022/09/21 14:15:11;;;;;;;;;2.00;1.00;;;;;;;;4995183;28;45487;-63
2022/09/21 14:17:37;;;;;;;;;1.33;1.00;;;;;;;;5000721;28;45539;-63
2022/09/21 14:20:04;;;;;;;;;1.00;1.00;;;;;;;;4989580;28;45470;-62
2022/09/21 14:22:32;;;;;;;;;1.00;1.00;;;;;;;;4991404;28;46182;-63
2022/09/21 14:25:17;;;;;;;;;1.50;1.00;;;;;;;;4992416;28;45353;-64
2022/09/21 14:27:43;;;;;;;;;1.33;1.33;;;;;;;;4990542;28;45374;-61
2022/09/21 14:30:22;;;;;;;;;1.00;0.67;;;;;;;;4987418;28;45759;-62
2022/09/21 14:32:52;;;;;;;;;1.33;1.33;;;;;;;;4998019;28;47952;-63
2022/09/21 14:35:20;;;;;;;;;2.00;2.00;;;;;;;;4989838;28;45482;-62
2022/09/21 14:37:49;;;;;;;;;1.00;1.00;;;;;;;;4999164;28;45369;-63
2022/09/21 14:40:26;;;;;;;;;4.00;2.33;;;;;;;;4993326;28;45218;-65
2022/09/21 14:42:53;;;;;;;;;1.67;0.67;;;;;;;;4996772;28;46431;-62
2022/09/21 14:45:23;;;;;;;;;1.50;1.25;;;;;;;;4999059;28;45311;-62
2022/09/21 14:48:04;;;;;;;;;1.00;1.00;;;;;;;;4985559;28;45201;-64
2022/09/21 14:50:35;;;;;;;;;1.00;1.00;;;;;;;;4993406;28;45487;-62
2022/09/21 14:53:00;;;;;;;;;2.00;2.00;;;;;;;;4999668;28;46196;-62
2022/09/21 14:55:32;;;;;;;;;1.67;1.33;;;;;;;;4998490;28;45399;-64
2022/09/21 14:58:00;;;;;;;;;0.33;0.33;;;;;;;;4998595;28;45274;-66
2022/09/21 15:00:39;;;;;;;;;1.00;1.00;;;;;;;;5002309;28;45760;-62
2022/09/21 15:03:04;;;;;;;;;2.00;2.00;;;;;;;;4992978;28;46046;-64
2022/09/21 15:05:36;;;;;;;;;1.00;1.00;;;;;;;;4999309;28;45518;-63
2022/09/21 15:11:11;;;;;;;;;1.00;1.00;;;;;;;;5003989;28;45475;-62
2022/09/21 15:13:46;;;;;;;;;1.00;1.00;;;;;;;;5001784;28;45692;-64
2022/09/21 15:16:20;;;;;;;;;2.33;1.00;;;;;;;;4999191;28;45301;-63
2022/09/21 15:18:46;;;;;;;;;2.00;2.00;;;;;;;;5001455;28;45566;-63
2022/09/21 15:21:31;;;;;;;;;2.00;1.33;;;;;;;;4996123;28;45237;-63
2022/09/21 15:23:59;;;;;;;;;1.00;1.00;;;;;;;;5008720;28;45355;-64
2022/09/21 15:26:28;;;;;;;;;2.00;2.00;;;;;;;;4987041;28;45392;-63
2022/09/21 15:28:55;;;;;;;;;2.00;1.00;;;;;;;;4999481;28;45448;-63
2022/09/21 15:31:20;;;;;;;;;4.33;1.33;;;;;;;;4994746;28;45413;-63
2022/09/21 15:33:47;;;;;;;;;2.33;2.33;;;;;;;;4991819;28;46227;-62
2022/09/21 15:36:19;;;;;;;;;1.00;1.00;;;;;;;;4998460;28;45468;-65
2022/09/21 15:38:46;;;;;;;;;1.00;1.00;;;;;;;;4991244;28;45292;-63
2022/09/21 15:41:21;;;;;;;;;1.75;1.75;;;;;;;;5005951;28;45597;-62
2022/09/21 15:43:50;;;;;;;;;2.50;1.00;;;;;;;;5007425;28;46882;-63
2022/09/21 15:46:18;;;;;;;;;1.67;1.67;;;;;;;;5005645;28;45523;-63
2022/09/21 15:48:45;;;;;;;;;1.00;1.00;;;;;;;;5009137;28;45840;-63
2022/09/21 15:51:34;;;;;;;;;1.00;1.00;;;;;;;;4999928;28;45696;-63
2022/09/21 15:54:20;;;;;;;;;1.00;1.00;;;;;;;;5001659;28;45942;-63
2022/09/21 15:56:45;;;;;;;;;1.00;1.00;;;;;;;;5008747;28;45245;-63
2022/09/21 15:59:14;;;;;;;;;1.00;1.00;;;;;;;;5000859;28;45486;-63
2022/09/21 16:01:43;;;;;;;;;1.00;1.00;;;;;;;;5001083;28;45933;-63
2022/09/21 16:04:12;;;;;;;;;1.00;1.00;;;;;;;;5010511;28;45248;-63
2022/09/21 16:06:40;;;;;;;;;2.67;2.67;;;;;;;;5001231;28;45325;-63
2022/09/21 16:09:24;;;;;;;;;1.00;1.00;;;;;;;;5005983;28;45407;-63
2022/09/21 16:11:50;;;;;;;;;2.67;1.00;;;;;;;;5010123;28;45684;-63
2022/09/21 16:17:07;;;;;;;;;1.00;1.00;;;;;;;;5012675;28;45410;-62
2022/09/21 16:19:42;;;;;;;;;1.00;1.00;;;;;;;;5005032;28;45325;-62
2022/09/21 16:22:16;;;;;;;;;0.67;0.67;;;;;;;;5007952;28;45429;-63
2022/09/21 16:24:49;;;;;;;;;1.00;1.00;;;;;;;;5001624;28;47118;-64
2022/09/21 16:27:15;;;;;;;;;0.00;0.00;;;;;;;;5000837;28;45296;-63
2022/09/21 16:29:42;;;;;;;;;0.00;0.00;;;;;;;;5000617;28;45297;-63
2022/09/21 16:32:16;;;;;;;;;1.00;1.00;;;;;;;;5003658;28;45410;-62
2022/09/21 16:34:42;;;;;;;;;0.33;0.33;;;;;;;;5003770;28;46172;-63
2022/09/21 16:37:23;;;;;;;;;1.67;1.67;;;;;;;;4997506;28;45584;-63
2022/09/21 16:39:51;;;;;;;;;1.33;1.33;;;;;;;;5005318;28;45495;-64
2022/09/21 16:42:18;;;;;;;;;2.00;1.00;;;;;;;;4998258;28;45383;-64
2022/09/21 16:44:44;;;;;;;;;1.00;1.00;;;;;;;;5000249;28;47351;-63
2022/09/21 16:47:14;;;;;;;;;1.00;1.00;;;;;;;;5007754;28;45367;-65
2022/09/21 16:49:40;;;;;;;;;1.00;1.00;;;;;;;;4998735;28;45324;-65
2022/09/21 16:52:06;;;;;;;;;1.00;1.00;;;;;;;;5003489;28;45648;-65
2022/09/21 16:54:31;;;;;;;;;2.00;2.00;;;;;;;;5000584;28;46018;-66
2022/09/21 16:56:58;;;;;;;;;1.00;1.00;;;;;;;;5002716;28;45321;-66
2022/09/21 16:59:23;;;;;;;;;2.00;2.00;;;;;;;;4998379;28;45456;-66
2022/09/21 17:01:51;;;;;;;;;2.00;1.67;;;;;;;;4998856;28;45517;-66
2022/09/21 17:04:17;;;;;;;;;3.00;2.00;;;;;;;;5008507;28;46870;-65
2022/09/21 17:06:43;;;;;;;;;2.67;2.33;;;;;;;;5003859;28;45534;-66
2022/09/21 17:09:16;;;;;;;;;3.00;2.00;;;;;;;;5003869;28;46586;-68
2022/09/21 17:11:44;;;;;;;;;5.00;1.00;;;;;;;;4996952;28;45574;-66
2022/09/21 17:14:12;;;;;;;;;3.33;1.67;;;;;;;;4995567;28;46354;-67
2022/09/21 17:16:37;;;;;;;;;2.00;2.00;;;;;;;;4995787;28;45507;-66
2022/09/21 17:19:02;;;;;;;;;3.00;3.00;;;;;;;;4998412;28;45481;-64
2022/09/21 17:21:27;;;;;;;;;4.67;3.00;;;;;;;;4994016;28;45570;-65
2022/09/21 17:23:52;;;;;;;;;3.33;2.00;;;;;;;;4991170;28;45439;-66
2022/09/21 17:26:20;;;;;;;;;2.00;2.00;;;;;;;;4996547;28;45715;-63
2022/09/21 17:28:45;;;;;;;;;2.00;2.00;;;;;;;;4993228;28;45435;-63
2022/09/21 17:31:11;;;;;;;;;2.00;2.00;;;;;;;;4997558;28;45578;-65
2022/09/21 17:33:36;;;;;;;;;2.33;2.33;;;;;;;;5001928;28;46198;-65
2022/09/21 17:36:05;;;;;;;;;1.00;1.00;;;;;;;;4995224;28;45567;-64
2022/09/21 17:38:30;;;;;;;;;3.67;3.67;;;;;;;;4988475;28;45589;-66
2022/09/21 17:40:56;;;;;;;;;2.00;2.00;;;;;;;;4990702;28;45279;-68
2022/09/21 17:48:22;;;;;;;;;2.67;2.67;;;;;;;;5020883;28;68846;-64
2022/09/21 17:50:48;;;;;;;;;9.33;7.00;;;;;;;;5035368;28;45617;-66
2022/09/21 17:55:58;;;;;;;;;10.67;8.33;;;;;;;;5029416;28;45663;-65
2022/09/21 17:58:25;;;;;;;;;5.67;4.33;;;;;;;;5038612;28;45209;-65
2022/09/21 18:00:56;;;;;;;;;6.00;6.00;;;;;;;;5037957;28;46341;-66
2022/09/21 18:03:23;;;;;;;;;7.67;5.00;;;;;;;;5038468;28;47320;-66
2022/09/21 18:05:49;;;;;;;;;6.00;6.00;;;;;;;;5041246;28;45462;-65
2022/09/21 18:08:15;;;;;;;;;3.33;3.33;;;;;;;;5042190;28;45300;-65
2022/09/21 18:10:43;;;;;;;;;10.00;7.00;;;;;;;;5038186;28;45585;-65
2022/09/21 18:13:12;;;;;;;;;8.33;7.67;;;;;;;;5049291;28;46271;-65
2022/09/21 18:15:51;;;;;;;;;6.33;5.00;;;;;;;;5040351;28;45311;-66
2022/09/21 18:18:18;;;;;;;;;1.33;0.33;;;;;;;;5032028;28;45264;-67
2022/09/21 18:20:53;;;;;;;;;7.33;5.67;;;;;;;;5038607;28;45713;-66
2022/09/21 18:23:19;;;;;;;;;7.00;7.00;;;;;;;;5038248;28;46091;-66
2022/09/21 18:25:48;;;;;;;;;10.00;8.00;;;;;;;;5037646;28;45448;-66
2022/09/21 18:28:22;;;;;;;;;5.33;5.33;;;;;;;;5053586;28;45157;-66
2022/09/21 18:30:50;;;;;;;;;6.67;6.67;;;;;;;;5016214;28;45524;-66
2022/09/21 18:33:24;;;;;;;;;6.67;5.00;;;;;;;;5026197;28;45362;-65
2022/09/21 18:35:56;;;;;;;;;10.00;8.00;;;;;;;;5023411;28;45436;-65
2022/09/21 18:38:40;;;;;;;;;9.33;7.67;;;;;;;;5033036;28;45437;-66
2022/09/21 18:41:31;;;;;;;;;9.67;8.00;;;;;;;;5029352;28;45922;-66
2022/09/21 18:44:04;;;;;;;;;15.33;14.33;;;;;;;;5036238;28;46196;-66
2022/09/21 18:46:41;;;;;;;;;7.33;7.33;;;;;;;;5036702;28;45220;-65
2022/09/21 18:49:15;;;;;;;;;6.00;5.33;;;;;;;;5030320;28;45415;-66
2022/09/21 18:51:47;;;;;;;;;4.00;4.00;;;;;;;;5038505;28;45727;-66
2022/09/21 18:54:19;;;;;;;;;7.33;6.00;;;;;;;;5036058;28;46023;-65
2022/09/21 18:56:45;;;;;;;;;7.00;7.00;;;;;;;;5030534;28;45712;-65
2022/09/21 18:59:11;;;;;;;;;8.67;6.67;;;;;;;;5037555;28;45886;-65
2022/09/21 19:01:36;;;;;;;;;7.00;5.67;;;;;;;;5034920;28;45929;-66
2022/09/21 19:04:02;;;;;;;;;6.67;4.00;;;;;;;;5036096;28;46124;-65
2022/09/21 19:06:33;;;;;;;;;7.67;5.67;;;;;;;;5038054;28;45460;-65
2022/09/21 19:09:07;;;;;;;;;7.00;7.00;;;;;;;;5036903;28;45728;-66
2022/09/21 19:11:38;;;;;;;;;11.33;8.33;;;;;;;;5033521;28;45750;-66
2022/09/21 19:14:06;;;;;;;;;9.00;9.00;;;;;;;;5029934;28;45743;-66
2022/09/21 19:16:33;;;;;;;;;10.33;10.33;;;;;;;;5038132;28;45462;-66
2022/09/21 19:19:10;;;;;;;;;11.67;10.33;;;;;;;;5038806;28;45722;-65
2022/09/21 19:21:36;;;;;;;;;15.00;12.33;;;;;;;;5043656;28;45697;-66
2022/09/21 19:24:07;;;;;;;;;6.33;5.67;;;;;;;;5050550;28;45542;-66
2022/09/21 19:26:45;;;;;;;;;9.67;9.67;;;;;;;;5035438;28;45435;-66
2022/09/21 19:29:17;;;;;;;;;11.00;8.00;;;;;;;;5039837;28;45529;-66
2022/09/21 19:31:43;;;;;;;;;8.00;8.00;;;;;;;;5031802;28;45597;-66
2022/09/21 19:34:13;;;;;;;;;12.33;11.00;;;;;;;;5038430;28;46116;-66
2022/09/21 19:36:38;;;;;;;;;8.33;7.33;;;;;;;;5036897;28;45577;-65